sensor_id;sensor_type;location;lat;lon;timestamp;temperature;humidity
78461;SHT31;67755;51.986;5.696;2023-12-22T00:02:00;10.1;67.9
78461;SHT31;67755;51.986;5.696;2023-12-22T00:04:29;10.1;68.3
78461;SHT31;67755;51.986;5.696;2023-12-22T00:06:58;10.1;68.3
78461;SHT31;67755;51.986;5.696;2023-12-22T00:09:26;10.1;68.1
78461;SHT31;67755;51.986;5.696;2023-12-22T00:11:55;10.1;68.1
78461;SHT31;67755;51.986;5.696;2023-12-22T00:14:23;10.1;68.1
78461;SHT31;67755;51.986;5.696;2023-12-22T00:16:52;10.1;69.0
78461;SHT31;67755;51.986;5.696;2023-12-22T00:19:20;10.1;69.0
78461;SHT31;67755;51.986;5.696;2023-12-22T00:21:51;10.1;69.5
78461;SHT31;67755;51.986;5.696;2023-12-22T00:24:20;10.0;68.7
78461;SHT31;67755;51.986;5.696;2023-12-22T00:26:51;10.0;67.8
78461;SHT31;67755;51.986;5.696;2023-12-22T00:29:19;10.0;68.2
78461;SHT31;67755;51.986;5.696;2023-12-22T00:31:48;10.0;68.4
78461;SHT31;67755;51.986;5.696;2023-12-22T00:34:17;9.9;67.0
78461;SHT31;67755;51.986;5.696;2023-12-22T00:36:46;9.9;67.5
78461;SHT31;67755;51.986;5.696;2023-12-22T00:39:15;9.9;67.8
78461;SHT31;67755;51.986;5.696;2023-12-22T00:41:43;9.8;66.7
78461;SHT31;67755;51.986;5.696;2023-12-22T00:44:12;9.8;66.4
78461;SHT31;67755;51.986;5.696;2023-12-22T00:46:41;9.8;66.2
78461;SHT31;67755;51.986;5.696;2023-12-22T00:49:09;9.8;66.2
78461;SHT31;67755;51.986;5.696;2023-12-22T00:51:42;9.7;65.5
78461;SHT31;67755;51.986;5.696;2023-12-22T00:54:11;9.7;66.4
78461;SHT31;67755;51.986;5.696;2023-12-22T00:56:39;9.7;65.2
78461;SHT31;67755;51.986;5.696;2023-12-22T00:59:08;9.7;65.5
78461;SHT31;67755;51.986;5.696;2023-12-22T01:01:37;9.6;66.2
78461;SHT31;67755;51.986;5.696;2023-12-22T01:04:05;9.6;66.4
78461;SHT31;67755;51.986;5.696;2023-12-22T01:06:36;9.6;66.6
78461;SHT31;67755;51.986;5.696;2023-12-22T01:09:05;9.6;67.7
78461;SHT31;67755;51.986;5.696;2023-12-22T01:11:34;9.6;66.7
78461;SHT31;67755;51.986;5.696;2023-12-22T01:14:02;9.6;67.6
78461;SHT31;67755;51.986;5.696;2023-12-22T01:16:31;9.5;67.6
78461;SHT31;67755;51.986;5.696;2023-12-22T01:18:59;9.5;67.3
78461;SHT31;67755;51.986;5.696;2023-12-22T01:21:28;9.5;67.5
78461;SHT31;67755;51.986;5.696;2023-12-22T01:24:01;9.5;68.0
78461;SHT31;67755;51.986;5.696;2023-12-22T01:26:30;9.6;67.5
78461;SHT31;67755;51.986;5.696;2023-12-22T01:29:01;9.6;67.4
78461;SHT31;67755;51.986;5.696;2023-12-22T01:31:30;9.6;68.3
78461;SHT31;67755;51.986;5.696;2023-12-22T01:33:58;9.6;68.1
78461;SHT31;67755;51.986;5.696;2023-12-22T01:36:27;9.6;68.6
78461;SHT31;67755;51.986;5.696;2023-12-22T01:38:55;9.6;68.8
78461;SHT31;67755;51.986;5.696;2023-12-22T01:41:24;9.6;69.0
78461;SHT31;67755;51.986;5.696;2023-12-22T01:43:52;9.6;68.5
78461;SHT31;67755;51.986;5.696;2023-12-22T01:46:21;9.6;68.7
78461;SHT31;67755;51.986;5.696;2023-12-22T01:48:50;9.6;68.9
78461;SHT31;67755;51.986;5.696;2023-12-22T01:51:19;9.6;69.1
78461;SHT31;67755;51.986;5.696;2023-12-22T01:53:49;9.6;68.8
78461;SHT31;67755;51.986;5.696;2023-12-22T01:56:19;9.6;68.8
78461;SHT31;67755;51.986;5.696;2023-12-22T01:58:48;9.6;68.8
78461;SHT31;67755;51.986;5.696;2023-12-22T02:01:20;9.6;68.7
78461;SHT31;67755;51.986;5.696;2023-12-22T02:03:51;9.7;68.9
78461;SHT31;67755;51.986;5.696;2023-12-22T02:06:21;9.7;68.7
78461;SHT31;67755;51.986;5.696;2023-12-22T02:08:50;9.7;68.6
78461;SHT31;67755;51.986;5.696;2023-12-22T02:11:19;9.7;68.7
78461;SHT31;67755;51.986;5.696;2023-12-22T02:13:50;9.7;68.7
78461;SHT31;67755;51.986;5.696;2023-12-22T02:16:23;9.7;68.5
78461;SHT31;67755;51.986;5.696;2023-12-22T02:18:57;9.8;68.2
78461;SHT31;67755;51.986;5.696;2023-12-22T02:21:29;9.8;68.4
78461;SHT31;67755;51.986;5.696;2023-12-22T02:23:57;9.8;68.0
78461;SHT31;67755;51.986;5.696;2023-12-22T02:26:32;9.8;68.2
78461;SHT31;67755;51.986;5.696;2023-12-22T02:29:04;9.8;68.7
78461;SHT31;67755;51.986;5.696;2023-12-22T02:31:37;9.8;68.8
78461;SHT31;67755;51.986;5.696;2023-12-22T02:34:15;9.8;68.9
78461;SHT31;67755;51.986;5.696;2023-12-22T02:36:47;9.8;68.7
78461;SHT31;67755;51.986;5.696;2023-12-22T02:39:18;9.8;68.7
78461;SHT31;67755;51.986;5.696;2023-12-22T02:41:50;9.8;68.4
78461;SHT31;67755;51.986;5.696;2023-12-22T02:44:19;9.8;68.5
78461;SHT31;67755;51.986;5.696;2023-12-22T02:46:48;9.8;68.6
78461;SHT31;67755;51.986;5.696;2023-12-22T02:49:16;9.8;68.7
78461;SHT31;67755;51.986;5.696;2023-12-22T02:51:45;9.8;68.7
78461;SHT31;67755;51.986;5.696;2023-12-22T02:54:14;9.8;68.6
78461;SHT31;67755;51.986;5.696;2023-12-22T02:56:45;9.8;68.6
78461;SHT31;67755;51.986;5.696;2023-12-22T02:59:14;9.9;68.4
78461;SHT31;67755;51.986;5.696;2023-12-22T03:01:42;9.9;67.8
78461;SHT31;67755;51.986;5.696;2023-12-22T03:04:11;9.9;67.3
78461;SHT31;67755;51.986;5.696;2023-12-22T03:06:39;9.9;67.7
78461;SHT31;67755;51.986;5.696;2023-12-22T03:09:08;9.9;67.3
78461;SHT31;67755;51.986;5.696;2023-12-22T03:11:36;9.8;67.1
78461;SHT31;67755;51.986;5.696;2023-12-22T03:14:05;9.8;67.0
78461;SHT31;67755;51.986;5.696;2023-12-22T03:16:34;9.8;67.5
78461;SHT31;67755;51.986;5.696;2023-12-22T03:19:02;9.8;67.7
78461;SHT31;67755;51.986;5.696;2023-12-22T03:21:31;9.8;67.7
78461;SHT31;67755;51.986;5.696;2023-12-22T03:23:59;9.8;68.2
78461;SHT31;67755;51.986;5.696;2023-12-22T03:26:28;9.8;68.2
78461;SHT31;67755;51.986;5.696;2023-12-22T03:28:57;9.8;67.8
78461;SHT31;67755;51.986;5.696;2023-12-22T03:31:26;9.8;68.1
78461;SHT31;67755;51.986;5.696;2023-12-22T03:33:55;9.8;66.7
78461;SHT31;67755;51.986;5.696;2023-12-22T03:36:23;9.8;67.2
78461;SHT31;67755;51.986;5.696;2023-12-22T03:38:52;9.8;67.0
78461;SHT31;67755;51.986;5.696;2023-12-22T03:41:20;9.8;68.2
78461;SHT31;67755;51.986;5.696;2023-12-22T03:43:49;9.9;68.5
78461;SHT31;67755;51.986;5.696;2023-12-22T03:46:18;9.9;69.1
78461;SHT31;67755;51.986;5.696;2023-12-22T03:48:46;9.9;68.2
78461;SHT31;67755;51.986;5.696;2023-12-22T03:51:15;9.9;68.5
78461;SHT31;67755;51.986;5.696;2023-12-22T03:53:43;9.9;68.9
78461;SHT31;67755;51.986;5.696;2023-12-22T03:56:12;10.0;68.8
78461;SHT31;67755;51.986;5.696;2023-12-22T03:58:41;10.0;67.6
78461;SHT31;67755;51.986;5.696;2023-12-22T04:01:14;10.0;66.7
78461;SHT31;67755;51.986;5.696;2023-12-22T04:03:43;10.0;66.9
78461;SHT31;67755;51.986;5.696;2023-12-22T04:06:12;10.0;66.2
78461;SHT31;67755;51.986;5.696;2023-12-22T04:08:41;10.0;66.6
78461;SHT31;67755;51.986;5.696;2023-12-22T04:11:11;9.9;66.9
78461;SHT31;67755;51.986;5.696;2023-12-22T04:13:39;9.9;66.7
78461;SHT31;67755;51.986;5.696;2023-12-22T04:16:08;9.9;66.9
78461;SHT31;67755;51.986;5.696;2023-12-22T04:18:37;9.9;66.9
78461;SHT31;67755;51.986;5.696;2023-12-22T04:21:07;9.8;67.0
78461;SHT31;67755;51.986;5.696;2023-12-22T04:23:36;9.8;67.3
78461;SHT31;67755;51.986;5.696;2023-12-22T04:26:05;9.8;67.9
78461;SHT31;67755;51.986;5.696;2023-12-22T04:28:33;9.8;67.6
78461;SHT31;67755;51.986;5.696;2023-12-22T04:31:03;9.8;67.7
78461;SHT31;67755;51.986;5.696;2023-12-22T04:33:34;9.8;67.9
78461;SHT31;67755;51.986;5.696;2023-12-22T04:36:02;9.8;68.0
78461;SHT31;67755;51.986;5.696;2023-12-22T04:38:31;9.8;68.2
78461;SHT31;67755;51.986;5.696;2023-12-22T04:41:00;9.8;68.2
78461;SHT31;67755;51.986;5.696;2023-12-22T04:43:28;9.8;68.1
78461;SHT31;67755;51.986;5.696;2023-12-22T04:45:57;9.8;68.1
78461;SHT31;67755;51.986;5.696;2023-12-22T04:48:25;9.8;67.5
78461;SHT31;67755;51.986;5.696;2023-12-22T04:50:54;9.8;68.2
78461;SHT31;67755;51.986;5.696;2023-12-22T04:53:24;9.8;68.1
78461;SHT31;67755;51.986;5.696;2023-12-22T04:55:53;9.8;68.4
78461;SHT31;67755;51.986;5.696;2023-12-22T04:58:22;9.8;68.4
78461;SHT31;67755;51.986;5.696;2023-12-22T05:00:50;9.8;68.0
78461;SHT31;67755;51.986;5.696;2023-12-22T05:03:21;9.8;68.3
78461;SHT31;67755;51.986;5.696;2023-12-22T05:05:49;9.8;68.3
78461;SHT31;67755;51.986;5.696;2023-12-22T05:08:18;9.8;68.7
78461;SHT31;67755;51.986;5.696;2023-12-22T05:10:47;9.9;68.8
78461;SHT31;67755;51.986;5.696;2023-12-22T05:13:15;9.9;68.7
78461;SHT31;67755;51.986;5.696;2023-12-22T05:15:44;9.9;68.6
78461;SHT31;67755;51.986;5.696;2023-12-22T05:18:13;9.9;68.7
78461;SHT31;67755;51.986;5.696;2023-12-22T05:20:42;9.9;68.7
78461;SHT31;67755;51.986;5.696;2023-12-22T05:23:12;10.0;68.6
78461;SHT31;67755;51.986;5.696;2023-12-22T05:25:40;10.0;68.5
78461;SHT31;67755;51.986;5.696;2023-12-22T05:28:11;10.0;68.3
78461;SHT31;67755;51.986;5.696;2023-12-22T05:30:39;10.0;68.3
78461;SHT31;67755;51.986;5.696;2023-12-22T05:33:08;10.1;68.2
78461;SHT31;67755;51.986;5.696;2023-12-22T05:35:37;10.1;68.3
78461;SHT31;67755;51.986;5.696;2023-12-22T05:38:06;10.1;68.2
78461;SHT31;67755;51.986;5.696;2023-12-22T05:40:34;10.1;68.2
78461;SHT31;67755;51.986;5.696;2023-12-22T05:43:03;10.1;68.1
78461;SHT31;67755;51.986;5.696;2023-12-22T05:45:31;10.1;68.1
78461;SHT31;67755;51.986;5.696;2023-12-22T05:48:00;10.1;68.2
78461;SHT31;67755;51.986;5.696;2023-12-22T05:50:29;10.1;68.3
78461;SHT31;67755;51.986;5.696;2023-12-22T05:52:57;10.1;68.1
78461;SHT31;67755;51.986;5.696;2023-12-22T05:55:26;10.1;68.1
78461;SHT31;67755;51.986;5.696;2023-12-22T05:57:55;10.1;67.6
78461;SHT31;67755;51.986;5.696;2023-12-22T06:00:24;10.1;68.1
78461;SHT31;67755;51.986;5.696;2023-12-22T06:02:53;10.1;68.4
78461;SHT31;67755;51.986;5.696;2023-12-22T06:05:22;10.1;68.8
78461;SHT31;67755;51.986;5.696;2023-12-22T06:07:52;10.1;68.6
78461;SHT31;67755;51.986;5.696;2023-12-22T06:10:21;10.2;68.1
78461;SHT31;67755;51.986;5.696;2023-12-22T06:12:50;10.2;68.4
78461;SHT31;67755;51.986;5.696;2023-12-22T06:15:20;10.2;68.9
78461;SHT31;67755;51.986;5.696;2023-12-22T06:17:51;10.2;69.2
78461;SHT31;67755;51.986;5.696;2023-12-22T06:20:19;10.2;69.3
78461;SHT31;67755;51.986;5.696;2023-12-22T06:22:48;10.2;69.2
78461;SHT31;67755;51.986;5.696;2023-12-22T06:25:16;10.2;69.4
78461;SHT31;67755;51.986;5.696;2023-12-22T06:27:45;10.2;69.0
78461;SHT31;67755;51.986;5.696;2023-12-22T06:30:14;10.2;69.6
78461;SHT31;67755;51.986;5.696;2023-12-22T06:32:45;10.2;70.3
78461;SHT31;67755;51.986;5.696;2023-12-22T06:35:14;10.3;70.4
78461;SHT31;67755;51.986;5.696;2023-12-22T06:37:43;10.3;69.2
78461;SHT31;67755;51.986;5.696;2023-12-22T06:40:12;10.3;69.6
78461;SHT31;67755;51.986;5.696;2023-12-22T06:42:41;10.3;69.4
78461;SHT31;67755;51.986;5.696;2023-12-22T06:45:10;10.4;69.3
78461;SHT31;67755;51.986;5.696;2023-12-22T06:47:38;10.4;69.5
78461;SHT31;67755;51.986;5.696;2023-12-22T06:50:07;10.4;69.6
78461;SHT31;67755;51.986;5.696;2023-12-22T06:52:36;10.4;68.7
78461;SHT31;67755;51.986;5.696;2023-12-22T06:55:06;10.4;69.1
78461;SHT31;67755;51.986;5.696;2023-12-22T06:57:35;10.4;69.3
78461;SHT31;67755;51.986;5.696;2023-12-22T07:00:04;10.5;69.3
78461;SHT31;67755;51.986;5.696;2023-12-22T07:02:33;10.5;69.8
78461;SHT31;67755;51.986;5.696;2023-12-22T07:07:57;10.5;69.2
78461;SHT31;67755;51.986;5.696;2023-12-22T07:10:27;10.6;69.5
78461;SHT31;67755;51.986;5.696;2023-12-22T07:12:55;10.6;69.2
78461;SHT31;67755;51.986;5.696;2023-12-22T07:15:24;10.6;69.0
78461;SHT31;67755;51.986;5.696;2023-12-22T07:17:52;10.6;69.5
78461;SHT31;67755;51.986;5.696;2023-12-22T07:20:21;10.6;69.4
78461;SHT31;67755;51.986;5.696;2023-12-22T07:22:50;10.6;68.9
78461;SHT31;67755;51.986;5.696;2023-12-22T07:25:20;10.7;69.7
78461;SHT31;67755;51.986;5.696;2023-12-22T07:27:48;10.7;69.2
78461;SHT31;67755;51.986;5.696;2023-12-22T07:30:18;10.7;69.1
78461;SHT31;67755;51.986;5.696;2023-12-22T07:32:46;10.7;69.1
78461;SHT31;67755;51.986;5.696;2023-12-22T07:35:18;10.7;68.7
78461;SHT31;67755;51.986;5.696;2023-12-22T07:37:47;10.8;68.8
78461;SHT31;67755;51.986;5.696;2023-12-22T07:40:17;10.8;68.5
78461;SHT31;67755;51.986;5.696;2023-12-22T07:42:47;10.8;68.5
78461;SHT31;67755;51.986;5.696;2023-12-22T07:45:17;10.8;68.3
78461;SHT31;67755;51.986;5.696;2023-12-22T07:47:46;10.8;68.2
78461;SHT31;67755;51.986;5.696;2023-12-22T07:50:15;10.9;68.6
78461;SHT31;67755;51.986;5.696;2023-12-22T07:52:46;10.9;68.3
78461;SHT31;67755;51.986;5.696;2023-12-22T07:55:18;10.9;68.5
78461;SHT31;67755;51.986;5.696;2023-12-22T07:57:47;10.9;68.5
78461;SHT31;67755;51.986;5.696;2023-12-22T08:00:17;10.9;68.9
78461;SHT31;67755;51.986;5.696;2023-12-22T08:02:47;10.9;68.6
78461;SHT31;67755;51.986;5.696;2023-12-22T08:05:16;11.0;69.9
78461;SHT31;67755;51.986;5.696;2023-12-22T08:07:45;11.0;70.1
78461;SHT31;67755;51.986;5.696;2023-12-22T08:10:14;11.0;70.0
78461;SHT31;67755;51.986;5.696;2023-12-22T08:12:45;11.0;69.7
78461;SHT31;67755;51.986;5.696;2023-12-22T08:15:14;11.0;69.3
78461;SHT31;67755;51.986;5.696;2023-12-22T08:17:48;11.0;69.6
78461;SHT31;67755;51.986;5.696;2023-12-22T08:20:21;11.0;69.9
78461;SHT31;67755;51.986;5.696;2023-12-22T08:22:50;11.1;70.2
78461;SHT31;67755;51.986;5.696;2023-12-22T08:25:19;11.1;70.3
78461;SHT31;67755;51.986;5.696;2023-12-22T08:27:48;11.1;70.1
78461;SHT31;67755;51.986;5.696;2023-12-22T08:30:17;11.1;69.9
78461;SHT31;67755;51.986;5.696;2023-12-22T08:32:50;11.1;70.5
78461;SHT31;67755;51.986;5.696;2023-12-22T08:35:19;11.1;70.8
78461;SHT31;67755;51.986;5.696;2023-12-22T08:37:49;11.1;71.1
78461;SHT31;67755;51.986;5.696;2023-12-22T08:40:19;11.1;71.3
78461;SHT31;67755;51.986;5.696;2023-12-22T08:42:52;11.1;71.7
78461;SHT31;67755;51.986;5.696;2023-12-22T08:45:26;11.1;71.6
78461;SHT31;67755;51.986;5.696;2023-12-22T08:47:55;11.1;71.7
78461;SHT31;67755;51.986;5.696;2023-12-22T08:50:24;11.1;72.1
78461;SHT31;67755;51.986;5.696;2023-12-22T08:52:54;11.1;72.2
78461;SHT31;67755;51.986;5.696;2023-12-22T08:55:25;11.1;72.4
78461;SHT31;67755;51.986;5.696;2023-12-22T08:57:53;11.1;72.4
78461;SHT31;67755;51.986;5.696;2023-12-22T09:00:22;11.1;72.2
78461;SHT31;67755;51.986;5.696;2023-12-22T09:02:53;11.1;72.4
78461;SHT31;67755;51.986;5.696;2023-12-22T09:05:21;11.1;72.5
78461;SHT31;67755;51.986;5.696;2023-12-22T09:07:50;11.1;72.4
78461;SHT31;67755;51.986;5.696;2023-12-22T09:10:19;11.1;72.7
78461;SHT31;67755;51.986;5.696;2023-12-22T09:12:47;11.1;72.8
78461;SHT31;67755;51.986;5.696;2023-12-22T09:15:16;11.1;73.0
78461;SHT31;67755;51.986;5.696;2023-12-22T09:17:44;11.1;73.3
78461;SHT31;67755;51.986;5.696;2023-12-22T09:20:15;11.1;73.4
78461;SHT31;67755;51.986;5.696;2023-12-22T09:22:44;11.1;73.8
78461;SHT31;67755;51.986;5.696;2023-12-22T09:25:13;11.2;74.0
78461;SHT31;67755;51.986;5.696;2023-12-22T09:27:42;11.2;74.0
78461;SHT31;67755;51.986;5.696;2023-12-22T09:30:11;11.2;74.1
78461;SHT31;67755;51.986;5.696;2023-12-22T09:32:40;11.2;74.4
78461;SHT31;67755;51.986;5.696;2023-12-22T09:35:09;11.2;74.1
78461;SHT31;67755;51.986;5.696;2023-12-22T09:37:38;11.2;73.8
78461;SHT31;67755;51.986;5.696;2023-12-22T09:40:07;11.2;72.0
78461;SHT31;67755;51.986;5.696;2023-12-22T09:42:37;11.2;72.6
78461;SHT31;67755;51.986;5.696;2023-12-22T09:45:11;11.2;71.7
78461;SHT31;67755;51.986;5.696;2023-12-22T09:47:42;11.2;70.7
78461;SHT31;67755;51.986;5.696;2023-12-22T09:50:12;11.2;70.8
78461;SHT31;67755;51.986;5.696;2023-12-22T09:52:42;11.2;70.9
78461;SHT31;67755;51.986;5.696;2023-12-22T09:55:13;11.2;70.4
78461;SHT31;67755;51.986;5.696;2023-12-22T09:57:45;11.2;70.8
78461;SHT31;67755;51.986;5.696;2023-12-22T10:00:15;11.1;71.3
78461;SHT31;67755;51.986;5.696;2023-12-22T10:02:45;11.1;71.1
78461;SHT31;67755;51.986;5.696;2023-12-22T10:05:14;11.1;71.3
78461;SHT31;67755;51.986;5.696;2023-12-22T10:07:46;11.1;71.6
78461;SHT31;67755;51.986;5.696;2023-12-22T10:10:17;11.1;72.1
78461;SHT31;67755;51.986;5.696;2023-12-22T10:12:47;11.1;72.5
78461;SHT31;67755;51.986;5.696;2023-12-22T10:15:16;11.1;73.3
78461;SHT31;67755;51.986;5.696;2023-12-22T10:17:50;11.1;74.1
78461;SHT31;67755;51.986;5.696;2023-12-22T10:20:19;11.1;74.8
78461;SHT31;67755;51.986;5.696;2023-12-22T10:22:48;11.1;75.4
78461;SHT31;67755;51.986;5.696;2023-12-22T10:25:20;11.1;75.9
78461;SHT31;67755;51.986;5.696;2023-12-22T10:27:52;11.1;76.5
78461;SHT31;67755;51.986;5.696;2023-12-22T10:30:23;11.1;76.4
78461;SHT31;67755;51.986;5.696;2023-12-22T10:32:52;11.2;76.8
78461;SHT31;67755;51.986;5.696;2023-12-22T10:35:22;11.2;77.2
78461;SHT31;67755;51.986;5.696;2023-12-22T10:37:51;11.2;77.1
78461;SHT31;67755;51.986;5.696;2023-12-22T10:40:24;11.3;76.9
78461;SHT31;67755;51.986;5.696;2023-12-22T10:42:56;11.3;77.0
78461;SHT31;67755;51.986;5.696;2023-12-22T10:45:24;11.4;76.6
78461;SHT31;67755;51.986;5.696;2023-12-22T10:47:54;11.4;76.6
78461;SHT31;67755;51.986;5.696;2023-12-22T10:50:22;11.4;76.4
78461;SHT31;67755;51.986;5.696;2023-12-22T10:52:53;11.5;76.3
78461;SHT31;67755;51.986;5.696;2023-12-22T10:55:21;11.5;76.2
78461;SHT31;67755;51.986;5.696;2023-12-22T10:57:50;11.6;75.4
78461;SHT31;67755;51.986;5.696;2023-12-22T11:00:20;11.6;75.3
78461;SHT31;67755;51.986;5.696;2023-12-22T11:02:49;11.6;75.2
78461;SHT31;67755;51.986;5.696;2023-12-22T11:05:26;11.6;75.2
78461;SHT31;67755;51.986;5.696;2023-12-22T11:08:00;11.7;75.4
78461;SHT31;67755;51.986;5.696;2023-12-22T11:10:31;11.7;74.8
78461;SHT31;67755;51.986;5.696;2023-12-22T11:13:00;11.7;75.0
78461;SHT31;67755;51.986;5.696;2023-12-22T11:15:30;11.8;75.0
78461;SHT31;67755;51.986;5.696;2023-12-22T11:18:01;11.8;74.3
78461;SHT31;67755;51.986;5.696;2023-12-22T11:20:32;11.8;74.5
78461;SHT31;67755;51.986;5.696;2023-12-22T11:23:02;11.9;74.6
78461;SHT31;67755;51.986;5.696;2023-12-22T11:25:32;11.9;74.5
78461;SHT31;67755;51.986;5.696;2023-12-22T11:28:04;11.9;74.5
78461;SHT31;67755;51.986;5.696;2023-12-22T11:30:36;11.9;74.4
78461;SHT31;67755;51.986;5.696;2023-12-22T11:33:06;12.0;74.0
78461;SHT31;67755;51.986;5.696;2023-12-22T11:35:35;12.0;73.5
78461;SHT31;67755;51.986;5.696;2023-12-22T11:38:06;12.0;72.9
78461;SHT31;67755;51.986;5.696;2023-12-22T11:40:35;12.0;72.4
78461;SHT31;67755;51.986;5.696;2023-12-22T11:43:04;12.1;71.9
78461;SHT31;67755;51.986;5.696;2023-12-22T11:45:33;12.1;71.5
78461;SHT31;67755;51.986;5.696;2023-12-22T11:48:08;12.1;71.8
78461;SHT31;67755;51.986;5.696;2023-12-22T11:50:37;12.1;72.2
78461;SHT31;67755;51.986;5.696;2023-12-22T11:53:19;12.1;71.8
78461;SHT31;67755;51.986;5.696;2023-12-22T11:55:59;12.1;73.0
78461;SHT31;67755;51.986;5.696;2023-12-22T11:58:36;12.1;72.4
78461;SHT31;67755;51.986;5.696;2023-12-22T12:01:06;12.1;73.2
78461;SHT31;67755;51.986;5.696;2023-12-22T12:03:36;12.2;73.0
78461;SHT31;67755;51.986;5.696;2023-12-22T12:06:15;12.2;72.8
78461;SHT31;67755;51.986;5.696;2023-12-22T12:08:44;12.2;72.1
78461;SHT31;67755;51.986;5.696;2023-12-22T12:11:15;12.2;71.2
78461;SHT31;67755;51.986;5.696;2023-12-22T12:13:45;12.2;71.6
78461;SHT31;67755;51.986;5.696;2023-12-22T12:16:19;12.2;71.4
78461;SHT31;67755;51.986;5.696;2023-12-22T12:18:51;12.3;71.0
78461;SHT31;67755;51.986;5.696;2023-12-22T12:21:21;12.3;70.8
78461;SHT31;67755;51.986;5.696;2023-12-22T12:23:51;12.3;70.3
78461;SHT31;67755;51.986;5.696;2023-12-22T12:26:20;12.3;70.8
78461;SHT31;67755;51.986;5.696;2023-12-22T12:28:51;12.3;70.9
78461;SHT31;67755;51.986;5.696;2023-12-22T12:31:36;12.3;70.8
78461;SHT31;67755;51.986;5.696;2023-12-22T12:34:10;12.4;70.6
78461;SHT31;67755;51.986;5.696;2023-12-22T12:36:41;12.4;70.5
78461;SHT31;67755;51.986;5.696;2023-12-22T12:39:15;12.4;70.8
78461;SHT31;67755;51.986;5.696;2023-12-22T12:41:53;12.4;71.2
78461;SHT31;67755;51.986;5.696;2023-12-22T12:44:23;12.4;71.2
78461;SHT31;67755;51.986;5.696;2023-12-22T12:46:53;12.4;70.7
78461;SHT31;67755;51.986;5.696;2023-12-22T12:49:23;12.4;70.8
78461;SHT31;67755;51.986;5.696;2023-12-22T12:51:56;12.4;70.6
78461;SHT31;67755;51.986;5.696;2023-12-22T12:54:27;12.5;69.8
78461;SHT31;67755;51.986;5.696;2023-12-22T12:56:55;12.5;70.7
78461;SHT31;67755;51.986;5.696;2023-12-22T12:59:24;12.5;70.5
78461;SHT31;67755;51.986;5.696;2023-12-22T13:01:53;12.5;70.4
78461;SHT31;67755;51.986;5.696;2023-12-22T13:04:38;12.5;70.2
78461;SHT31;67755;51.986;5.696;2023-12-22T13:07:06;12.5;70.2
78461;SHT31;67755;51.986;5.696;2023-12-22T13:09:36;12.5;69.8
78461;SHT31;67755;51.986;5.696;2023-12-22T13:12:05;12.6;70.1
78461;SHT31;67755;51.986;5.696;2023-12-22T13:14:34;12.6;70.1
78461;SHT31;67755;51.986;5.696;2023-12-22T13:17:03;12.6;69.3
78461;SHT31;67755;51.986;5.696;2023-12-22T13:19:34;12.6;70.7
78461;SHT31;67755;51.986;5.696;2023-12-22T13:22:03;12.6;69.3
78461;SHT31;67755;51.986;5.696;2023-12-22T13:24:34;12.6;69.1
78461;SHT31;67755;51.986;5.696;2023-12-22T13:27:04;12.6;68.5
78461;SHT31;67755;51.986;5.696;2023-12-22T13:29:44;12.6;69.4
78461;SHT31;67755;51.986;5.696;2023-12-22T13:32:20;12.6;69.1
78461;SHT31;67755;51.986;5.696;2023-12-22T13:34:52;12.6;68.5
78461;SHT31;67755;51.986;5.696;2023-12-22T13:37:22;12.6;68.0
78461;SHT31;67755;51.986;5.696;2023-12-22T13:39:54;12.6;68.3
78461;SHT31;67755;51.986;5.696;2023-12-22T13:42:24;12.6;68.1
78461;SHT31;67755;51.986;5.696;2023-12-22T13:44:53;12.6;67.8
78461;SHT31;67755;51.986;5.696;2023-12-22T13:47:22;12.7;67.9
78461;SHT31;67755;51.986;5.696;2023-12-22T13:49:53;12.7;68.2
78461;SHT31;67755;51.986;5.696;2023-12-22T13:52:28;12.7;68.2
78461;SHT31;67755;51.986;5.696;2023-12-22T13:55:00;12.7;68.3
78461;SHT31;67755;51.986;5.696;2023-12-22T13:57:29;12.7;68.0
78461;SHT31;67755;51.986;5.696;2023-12-22T13:59:58;12.7;68.3
78461;SHT31;67755;51.986;5.696;2023-12-22T14:02:27;12.7;69.2
78461;SHT31;67755;51.986;5.696;2023-12-22T14:04:57;12.7;69.7
78461;SHT31;67755;51.986;5.696;2023-12-22T14:07:26;12.7;69.6
78461;SHT31;67755;51.986;5.696;2023-12-22T14:09:55;12.7;69.9
78461;SHT31;67755;51.986;5.696;2023-12-22T14:12:23;12.7;69.1
78461;SHT31;67755;51.986;5.696;2023-12-22T14:14:52;12.7;69.3
78461;SHT31;67755;51.986;5.696;2023-12-22T14:17:20;12.7;68.5
78461;SHT31;67755;51.986;5.696;2023-12-22T14:19:49;12.7;68.4
78461;SHT31;67755;51.986;5.696;2023-12-22T14:22:18;12.7;69.8
78461;SHT31;67755;51.986;5.696;2023-12-22T14:24:46;12.7;70.0
78461;SHT31;67755;51.986;5.696;2023-12-22T14:27:15;12.7;69.6
78461;SHT31;67755;51.986;5.696;2023-12-22T14:29:45;12.7;69.7
78461;SHT31;67755;51.986;5.696;2023-12-22T14:32:13;12.7;69.6
78461;SHT31;67755;51.986;5.696;2023-12-22T14:34:45;12.7;68.8
78461;SHT31;67755;51.986;5.696;2023-12-22T14:37:14;12.7;69.0
78461;SHT31;67755;51.986;5.696;2023-12-22T14:39:44;12.6;68.9
78461;SHT31;67755;51.986;5.696;2023-12-22T14:42:13;12.6;68.4
78461;SHT31;67755;51.986;5.696;2023-12-22T14:44:42;12.6;69.6
78461;SHT31;67755;51.986;5.696;2023-12-22T14:47:11;12.6;70.3
78461;SHT31;67755;51.986;5.696;2023-12-22T14:49:40;12.6;68.6
78461;SHT31;67755;51.986;5.696;2023-12-22T14:52:09;12.6;69.3
78461;SHT31;67755;51.986;5.696;2023-12-22T14:54:37;12.6;70.5
78461;SHT31;67755;51.986;5.696;2023-12-22T14:57:06;12.6;71.0
78461;SHT31;67755;51.986;5.696;2023-12-22T14:59:35;12.6;71.3
78461;SHT31;67755;51.986;5.696;2023-12-22T15:02:04;12.6;71.4
78461;SHT31;67755;51.986;5.696;2023-12-22T15:04:33;12.6;71.0
78461;SHT31;67755;51.986;5.696;2023-12-22T15:07:02;12.6;71.2
78461;SHT31;67755;51.986;5.696;2023-12-22T15:09:30;12.6;71.8
78461;SHT31;67755;51.986;5.696;2023-12-22T15:11:59;12.6;71.8
78461;SHT31;67755;51.986;5.696;2023-12-22T15:14:30;12.6;71.7
78461;SHT31;67755;51.986;5.696;2023-12-22T15:16:58;12.6;72.0
78461;SHT31;67755;51.986;5.696;2023-12-22T15:19:27;12.6;72.2
78461;SHT31;67755;51.986;5.696;2023-12-22T15:21:56;12.6;71.9
78461;SHT31;67755;51.986;5.696;2023-12-22T15:24:24;12.6;72.2
78461;SHT31;67755;51.986;5.696;2023-12-22T15:26:55;12.6;72.4
78461;SHT31;67755;51.986;5.696;2023-12-22T15:29:24;12.5;72.2
78461;SHT31;67755;51.986;5.696;2023-12-22T15:31:54;12.5;72.3
78461;SHT31;67755;51.986;5.696;2023-12-22T15:34:26;12.5;72.3
78461;SHT31;67755;51.986;5.696;2023-12-22T15:36:55;12.5;72.3
78461;SHT31;67755;51.986;5.696;2023-12-22T15:39:24;12.5;72.6
78461;SHT31;67755;51.986;5.696;2023-12-22T15:41:54;12.5;72.3
78461;SHT31;67755;51.986;5.696;2023-12-22T15:44:25;12.5;72.2
78461;SHT31;67755;51.986;5.696;2023-12-22T15:46:55;12.5;71.9
78461;SHT31;67755;51.986;5.696;2023-12-22T15:49:24;12.5;72.0
78461;SHT31;67755;51.986;5.696;2023-12-22T15:51:54;12.5;71.9
78461;SHT31;67755;51.986;5.696;2023-12-22T15:54:22;12.5;71.9
78461;SHT31;67755;51.986;5.696;2023-12-22T15:56:51;12.5;71.9
78461;SHT31;67755;51.986;5.696;2023-12-22T15:59:19;12.4;71.9
78461;SHT31;67755;51.986;5.696;2023-12-22T16:01:52;12.4;72.2
78461;SHT31;67755;51.986;5.696;2023-12-22T16:04:20;12.4;71.2
78461;SHT31;67755;51.986;5.696;2023-12-22T16:06:49;12.4;71.2
78461;SHT31;67755;51.986;5.696;2023-12-22T16:09:19;12.4;71.9
78461;SHT31;67755;51.986;5.696;2023-12-22T16:11:48;12.4;72.0
78461;SHT31;67755;51.986;5.696;2023-12-22T16:14:16;12.4;72.2
78461;SHT31;67755;51.986;5.696;2023-12-22T16:16:45;12.4;72.5
78461;SHT31;67755;51.986;5.696;2023-12-22T16:19:14;12.4;72.4
78461;SHT31;67755;51.986;5.696;2023-12-22T16:21:42;12.4;72.3
78461;SHT31;67755;51.986;5.696;2023-12-22T16:24:12;12.4;72.9
78461;SHT31;67755;51.986;5.696;2023-12-22T16:26:41;12.4;72.7